Kingsville Naval Air Station, Texas
Current Conditions -  °F | °C
As of 11:56 PM on Sunday 23 Nov 2014 (Local Time) from KNQI Reporting Station
NA  
Wind Chill: 62°   Ceiling: NA
Heat Index: 62°   Visibility: 10mi
Dew Point: 59°   Wind: 7mph
Humidity: 90%   Direction: 260°W
Pressure: 29.76"   Gusts: NA
Location:  27.4762°N, 97.7965°W
Report Text: KNQI 240556Z AUTO 26006KT 10SM 17/15 A2976 RMK AO2 SLP075 T01670150 10222 20150 403000144 51022 $
Loading
Personal Weather Stations






























Interactive Weather Map New forecast layout! Learn more

10-Day Weather Forecast

Advertisements
Track Severe Weather on mobile